createdAt,value
2019-04-01T00:02:21.036Z,101769.67
2019-04-01T00:07:24.447Z,101756.75
2019-04-01T00:12:27.861Z,101761.17
2019-04-01T00:17:31.286Z,101756.81
2019-04-01T00:22:34.705Z,101747.50
2019-04-01T00:27:38.115Z,101756.88
2019-04-01T00:32:41.632Z,101752.57
2019-04-01T00:37:45.050Z,101755.87
2019-04-01T00:48:04.980Z,101756.28
2019-04-01T00:53:08.409Z,101751.79
2019-04-01T00:58:11.816Z,101751.20
2019-04-01T01:03:15.223Z,101743.61
2019-04-01T01:08:18.634Z,101743.80
2019-04-01T01:13:22.056Z,101735.84
2019-04-01T01:18:25.482Z,101729.24
2019-04-01T01:23:28.898Z,101732.50
2019-04-01T01:28:32.383Z,101727.08
2019-04-01T01:33:35.779Z,101725.37
2019-04-01T01:38:39.297Z,101722.86
2019-04-01T01:43:42.684Z,101719.33
2019-04-01T01:48:46.109Z,101715.00
2019-04-01T01:53:49.527Z,101707.48
2019-04-01T01:58:52.945Z,101704.06
2019-04-01T02:03:56.393Z,101708.36
2019-04-01T02:08:59.805Z,101704.45
2019-04-01T02:14:03.217Z,101699.11
2019-04-01T02:19:06.637Z,101700.62
2019-04-01T02:24:10.072Z,101705.16
2019-04-01T02:29:13.473Z,101693.91
2019-04-01T02:34:16.896Z,101693.09
2019-04-01T02:39:20.299Z,101694.73
2019-04-01T02:44:23.845Z,101700.55
2019-04-01T02:49:27.275Z,101700.94
2019-04-01T02:54:30.701Z,101699.45
2019-04-01T02:59:34.121Z,101701.06
2019-04-01T03:04:37.545Z,101705.04
2019-04-01T03:09:40.955Z,101706.14
2019-04-01T03:14:44.366Z,101695.21
2019-04-01T03:19:47.800Z,101693.73
2019-04-01T03:24:51.200Z,101691.11
2019-04-01T03:29:54.610Z,101694.53
2019-04-01T03:34:58.034Z,101684.78
2019-04-01T03:40:01.520Z,101690.13
2019-04-01T03:45:06.446Z,101689.33
2019-04-01T03:50:10.093Z,101687.08
2019-04-01T03:55:13.514Z,101687.33
2019-04-01T04:00:17.064Z,101680.81
2019-04-01T04:05:20.942Z,101680.13
2019-04-01T04:10:24.360Z,101678.01
2019-04-01T04:15:27.824Z,101674.69
2019-04-01T04:20:31.255Z,101676.52
2019-04-01T04:25:34.776Z,101677.02
2019-04-01T04:30:38.201Z,101682.37
2019-04-01T04:35:41.624Z,101681.68
2019-04-01T04:40:45.035Z,101684.17
2019-04-01T04:45:48.442Z,101687.13
2019-04-01T04:50:51.874Z,101685.55
2019-04-01T04:55:55.311Z,101684.93
2019-04-01T05:00:58.707Z,101684.44
2019-04-01T05:06:02.118Z,101693.88
2019-04-01T05:11:05.533Z,101690.88
2019-04-01T05:16:08.947Z,101687.89
2019-04-01T05:21:15.509Z,101691.05
2019-04-01T05:26:21.137Z,101692.22
2019-04-01T05:31:27.517Z,101695.78
2019-04-01T05:36:31.673Z,101689.62
2019-04-01T05:41:35.825Z,101695.27
2019-04-01T05:46:39.325Z,101699.79
2019-04-01T05:51:42.869Z,101701.62
2019-04-01T05:56:46.478Z,101701.08
2019-04-01T06:01:50.672Z,101706.50
2019-04-01T06:06:54.091Z,101708.90
2019-04-01T06:11:57.988Z,101710.34
2019-04-01T06:17:01.486Z,101710.42
2019-04-01T06:22:04.968Z,101710.20
2019-04-01T06:27:08.452Z,101709.44
2019-04-01T06:32:11.885Z,101714.26
2019-04-01T06:37:15.387Z,101708.06
2019-04-01T06:42:19.383Z,101715.33
2019-04-01T06:47:23.144Z,101711.30
2019-04-01T06:52:26.528Z,101701.40
2019-04-01T06:57:29.998Z,101703.01
2019-04-01T07:02:33.448Z,101703.72
2019-04-01T07:07:36.866Z,101699.59
2019-04-01T07:12:40.298Z,101696.32
2019-04-01T07:17:43.703Z,101700.78
2019-04-01T07:22:47.283Z,101694.03
2019-04-01T07:27:50.869Z,101687.52
2019-04-01T07:32:54.290Z,101690.11
2019-04-01T07:37:57.854Z,101685.48
2019-04-01T07:43:01.343Z,101691.70
2019-04-01T07:48:05.215Z,101695.03
2019-04-01T07:53:08.635Z,101685.11
2019-04-01T07:58:12.069Z,101676.59
2019-04-01T08:03:15.477Z,101677.62
2019-04-01T08:08:19.059Z,101671.94
2019-04-01T08:13:22.478Z,101672.25
2019-04-01T08:18:25.958Z,101671.86
2019-04-01T08:23:29.882Z,101666.20
2019-04-01T08:28:33.297Z,101670.94
2019-04-01T08:33:36.738Z,101666.17
2019-04-01T08:38:40.153Z,101672.14
2019-04-01T08:43:43.574Z,101658.31
2019-04-01T08:48:46.996Z,101657.84
2019-04-01T08:53:50.405Z,101662.80
2019-04-01T08:58:53.812Z,101648.98
2019-04-01T09:03:57.225Z,101645.05
2019-04-01T09:09:03.863Z,101638.51
2019-04-01T09:14:07.287Z,101632.05
2019-04-01T09:19:10.732Z,101632.95
2019-04-01T09:24:14.147Z,101617.34
2019-04-01T09:29:17.576Z,101622.50
2019-04-01T09:34:21.015Z,101609.87
2019-04-01T09:39:24.471Z,101605.91
2019-04-01T09:44:36.504Z,101604.07
2019-04-01T09:49:33.045Z,101588.17
2019-04-01T09:54:36.467Z,101574.97
2019-04-01T09:59:39.888Z,101575.64
2019-04-01T10:04:43.318Z,101570.92
2019-04-01T10:09:46.730Z,101563.80
2019-04-01T10:14:50.184Z,101552.64
2019-04-01T10:19:53.587Z,101539.49
2019-04-01T10:24:57.028Z,101531.04
2019-04-01T10:30:00.505Z,101526.55
2019-04-01T10:35:05.726Z,101513.78
2019-04-01T10:40:09.489Z,101510.30
2019-04-01T10:45:15.373Z,101503.88
2019-04-01T10:50:19.086Z,101492.72
2019-04-01T10:55:22.483Z,101479.33
2019-04-01T11:00:26.620Z,101474.33
2019-04-01T11:05:30.122Z,101470.80
2019-04-01T11:10:33.769Z,101465.45
2019-04-01T11:15:37.723Z,101451.32
2019-04-01T11:20:41.174Z,101456.24
2019-04-01T11:25:44.596Z,101439.05
2019-04-01T11:30:48.038Z,101446.04
2019-04-01T11:35:52.205Z,101442.88
2019-04-01T11:40:55.622Z,101435.38
2019-04-01T11:45:59.036Z,101432.09
2019-04-01T11:51:02.517Z,101425.47
2019-04-01T11:56:05.901Z,101422.70
2019-04-01T12:01:09.328Z,101419.19
2019-04-01T12:06:12.807Z,101401.83
2019-04-01T12:11:16.252Z,101390.97
2019-04-01T12:16:19.677Z,101389.66
2019-04-01T12:21:23.099Z,101385.36
2019-04-01T12:26:26.530Z,101375.87
2019-04-01T12:31:30.035Z,101367.97
2019-04-01T12:36:33.448Z,101361.42
2019-04-01T12:41:36.927Z,101350.22
2019-04-01T12:46:40.351Z,101345.81
2019-04-01T12:51:43.865Z,101341.67
2019-04-01T12:56:47.273Z,101346.31
2019-04-01T13:01:50.792Z,101325.69
2019-04-01T13:06:54.241Z,101317.56
2019-04-01T13:11:57.662Z,101304.58
2019-04-01T13:17:01.092Z,101297.53
2019-04-01T13:22:04.497Z,101276.94
2019-04-01T13:27:09.379Z,101270.98
2019-04-01T13:32:13.017Z,101269.89
2019-04-01T13:37:16.443Z,101253.06
2019-04-01T13:42:19.865Z,101253.86
2019-04-01T13:47:23.309Z,101247.55
2019-04-01T13:52:26.714Z,101248.05
2019-04-01T13:57:30.200Z,101240.37
2019-04-01T14:02:33.634Z,101228.09
2019-04-01T14:07:37.040Z,101221.89
2019-04-01T14:12:40.492Z,101215.64
2019-04-01T14:17:43.923Z,101204.20
2019-04-01T14:22:48.311Z,101199.42
2019-04-01T14:27:52.441Z,101186.89
2019-04-01T14:32:55.865Z,101175.88
2019-04-01T14:37:59.278Z,101171.77
2019-04-01T14:43:02.707Z,101147.86
2019-04-01T14:48:08.330Z,101148.25
2019-04-01T14:53:11.282Z,101140.79
2019-04-01T14:58:14.722Z,101134.12
2019-04-01T15:03:18.390Z,101128.27
2019-04-01T15:08:21.885Z,101117.31
2019-04-01T15:13:26.033Z,101111.50
2019-04-01T15:18:29.457Z,101106.11
2019-04-01T15:23:32.888Z,101098.66
2019-04-01T15:28:36.298Z,101092.48
2019-04-01T15:33:39.750Z,101085.51
2019-04-01T15:38:43.177Z,101067.37
2019-04-01T15:43:46.592Z,101062.34
2019-04-01T15:48:50.044Z,101057.83
2019-04-01T15:53:53.475Z,101044.55
2019-04-01T15:58:56.917Z,101041.22
2019-04-01T16:04:00.330Z,101034.73
2019-04-01T16:09:06.246Z,101035.05
2019-04-01T16:14:11.189Z,101027.23
2019-04-01T16:19:14.792Z,101032.42
2019-04-01T16:24:18.213Z,101024.11
2019-04-01T16:29:21.655Z,101015.80
2019-04-01T16:34:25.080Z,101014.91
2019-04-01T16:39:28.497Z,101005.86
2019-04-01T16:44:31.935Z,101002.73
2019-04-01T16:49:36.625Z,101001.10
2019-04-01T16:54:40.066Z,100992.05
2019-04-01T16:59:43.490Z,100987.39
2019-04-01T17:04:48.224Z,100978.27
2019-04-01T17:09:51.844Z,100979.45
2019-04-01T17:14:55.332Z,100971.84
2019-04-01T17:19:58.741Z,100967.63
2019-04-01T17:25:02.158Z,100969.31
2019-04-01T17:30:10.900Z,100968.53
2019-04-01T17:35:14.545Z,100976.91
2019-04-01T17:40:18.264Z,100964.71
2019-04-01T17:45:24.826Z,100958.38
2019-04-01T17:50:29.138Z,100956.83
2019-04-01T17:55:32.837Z,100959.55
2019-04-01T18:00:38.302Z,100951.61
2019-04-01T18:05:41.667Z,100953.48
2019-04-01T18:10:48.514Z,100952.36
2019-04-01T18:15:50.225Z,100956.99
2019-04-01T18:20:53.649Z,100953.57
2019-04-01T18:25:57.061Z,100942.86
2019-04-01T18:31:00.487Z,100948.64
2019-04-01T18:36:03.982Z,100952.59
2019-04-01T18:41:07.456Z,100948.33
2019-04-01T18:46:10.882Z,100947.70
2019-04-01T18:51:14.327Z,100952.19
2019-04-01T18:56:17.754Z,100954.88
2019-04-01T19:01:21.194Z,100960.99
2019-04-01T19:06:25.753Z,100960.32
2019-04-01T19:11:31.169Z,100955.66
2019-04-01T19:16:34.955Z,100957.48
2019-04-01T19:21:38.707Z,100955.86
2019-04-01T19:26:46.839Z,100958.08
2019-04-01T19:31:51.451Z,100953.33
2019-04-01T19:36:54.838Z,100950.35
2019-04-01T19:42:00.547Z,100951.32
2019-04-01T19:47:04.131Z,100954.83
2019-04-01T19:52:09.804Z,100953.17
2019-04-01T19:57:13.354Z,100945.00
2019-04-01T20:02:17.205Z,100942.39
2019-04-01T20:07:21.614Z,100941.58
2019-04-01T20:12:27.058Z,100939.47
2019-04-01T20:17:30.483Z,100933.44
2019-04-01T20:22:33.934Z,100931.70
2019-04-01T20:27:37.376Z,100929.58
2019-04-01T20:32:40.798Z,100920.48
2019-04-01T20:37:44.331Z,100914.44
2019-04-01T20:42:48.785Z,100907.54
2019-04-01T20:47:52.206Z,100899.33
2019-04-01T20:52:55.703Z,100903.26
2019-04-01T20:57:59.210Z,100890.23
2019-04-01T21:03:02.979Z,100890.70
2019-04-01T21:08:06.437Z,100886.83
2019-04-01T21:13:10.484Z,100883.39
2019-04-01T21:18:14.525Z,100885.52
2019-04-01T21:23:19.130Z,100881.65
2019-04-01T21:28:24.952Z,100876.01
2019-04-01T21:33:28.430Z,100864.31
2019-04-01T21:38:32.970Z,100857.41
2019-04-01T21:43:36.467Z,100850.07
2019-04-01T21:48:39.888Z,100843.16
2019-04-01T21:53:43.319Z,100835.34
2019-04-01T21:58:46.814Z,100830.58
2019-04-01T22:03:50.299Z,100824.97
2019-04-01T22:08:53.733Z,100824.54
2019-04-01T22:13:57.161Z,100802.47
2019-04-01T22:19:00.592Z,100796.83
2019-04-01T22:24:04.576Z,100796.83
2019-04-01T22:29:08.198Z,100792.07
2019-04-01T22:34:11.643Z,100782.13
2019-04-01T22:39:26.304Z,100774.31
2019-04-01T22:44:20.241Z,100776.48
2019-04-01T22:49:23.730Z,100765.66
2019-04-01T22:54:27.157Z,100759.61
2019-04-01T22:59:30.578Z,100758.72
2019-04-01T23:04:36.788Z,100756.53
2019-04-01T23:09:39.555Z,100751.38
2019-04-01T23:14:42.980Z,100742.71
2019-04-01T23:19:46.484Z,100738.36
2019-04-01T23:24:49.906Z,100736.22
2019-04-01T23:29:53.338Z,100726.69
2019-04-01T23:34:56.747Z,100725.83
2019-04-01T23:40:00.164Z,100714.99
2019-04-01T23:45:04.636Z,100711.09
2019-04-01T23:50:09.381Z,100705.49
2019-04-01T23:55:13.527Z,100705.93
